sensor_id;sensor_type;location;lat;lon;timestamp;pressure;altitude;pressure_sealevel;temperature;humidity
41467;BME280;27205;53.690;19.948;2023-02-14T00:03:15;101478.08;;;3.10;83.46
41467;BME280;27205;53.690;19.948;2023-02-14T00:08:17;101476.52;;;3.05;83.58
41467;BME280;27205;53.690;19.948;2023-02-14T00:13:19;101480.54;;;3.02;83.72
41467;BME280;27205;53.690;19.948;2023-02-14T00:18:22;101480.77;;;3.03;83.70
41467;BME280;27205;53.690;19.948;2023-02-14T00:23:44;101483.80;;;2.99;83.98
41467;BME280;27205;53.690;19.948;2023-02-14T00:28:46;101490.39;;;2.97;84.23
41467;BME280;27205;53.690;19.948;2023-02-14T00:33:48;101504.51;;;2.92;84.44
41467;BME280;27205;53.690;19.948;2023-02-14T00:38:51;101503.23;;;2.97;84.28
41467;BME280;27205;53.690;19.948;2023-02-14T00:43:53;101501.64;;;2.93;84.29
41467;BME280;27205;53.690;19.948;2023-02-14T00:48:55;101494.00;;;2.89;84.56
41467;BME280;27205;53.690;19.948;2023-02-14T00:53:58;101504.02;;;2.85;84.55
41467;BME280;27205;53.690;19.948;2023-02-14T00:59:00;101509.60;;;2.84;84.73
41467;BME280;27205;53.690;19.948;2023-02-14T01:04:03;101513.40;;;2.82;84.90
41467;BME280;27205;53.690;19.948;2023-02-14T01:09:05;101521.92;;;2.79;84.99
41467;BME280;27205;53.690;19.948;2023-02-14T01:14:07;101517.71;;;2.76;85.11
41467;BME280;27205;53.690;19.948;2023-02-14T01:19:09;101523.77;;;2.76;85.05
41467;BME280;27205;53.690;19.948;2023-02-14T01:24:12;101528.58;;;2.74;85.27
41467;BME280;27205;53.690;19.948;2023-02-14T01:29:14;101528.73;;;2.74;85.49
41467;BME280;27205;53.690;19.948;2023-02-14T01:34:16;101529.13;;;2.75;85.55
41467;BME280;27205;53.690;19.948;2023-02-14T01:39:18;101526.39;;;2.73;85.88
41467;BME280;27205;53.690;19.948;2023-02-14T01:49:36;101515.27;;;2.72;86.40
41467;BME280;27205;53.690;19.948;2023-02-14T01:54:44;101503.77;;;2.70;86.30
41467;BME280;27205;53.690;19.948;2023-02-14T01:59:51;101509.34;;;2.67;86.49
41467;BME280;27205;53.690;19.948;2023-02-14T02:04:55;101509.87;;;2.66;86.38
41467;BME280;27205;53.690;19.948;2023-02-14T02:09:59;101515.23;;;2.64;86.75
41467;BME280;27205;53.690;19.948;2023-02-14T02:15:04;101514.84;;;2.64;86.68
41467;BME280;27205;53.690;19.948;2023-02-14T02:26:02;101516.88;;;2.57;86.83
41467;BME280;27205;53.690;19.948;2023-02-14T02:51:29;101525.10;;;2.54;87.33
41467;BME280;27205;53.690;19.948;2023-02-14T02:56:56;101535.38;;;2.58;87.46
41467;BME280;27205;53.690;19.948;2023-02-14T03:07:18;101541.95;;;2.75;87.89
41467;BME280;27205;53.690;19.948;2023-02-14T03:23:12;101545.86;;;3.01;87.97
41467;BME280;27205;53.690;19.948;2023-02-14T03:28:56;101554.42;;;3.03;87.89
41467;BME280;27205;53.690;19.948;2023-02-14T03:34:11;101547.91;;;3.06;87.97
41467;BME280;27205;53.690;19.948;2023-02-14T03:39:51;101543.31;;;3.06;88.06
41467;BME280;27205;53.690;19.948;2023-02-14T03:44:59;101547.20;;;3.06;88.24
41467;BME280;27205;53.690;19.948;2023-02-14T03:50:12;101543.02;;;3.07;88.34
41467;BME280;27205;53.690;19.948;2023-02-14T03:55:22;101546.83;;;3.08;88.44
41467;BME280;27205;53.690;19.948;2023-02-14T04:00:29;101549.40;;;3.09;88.75
41467;BME280;27205;53.690;19.948;2023-02-14T04:05:34;101549.36;;;3.04;89.14
41467;BME280;27205;53.690;19.948;2023-02-14T04:10:40;101556.59;;;3.02;89.57
41467;BME280;27205;53.690;19.948;2023-02-14T04:15:45;101559.80;;;3.05;89.76
41467;BME280;27205;53.690;19.948;2023-02-14T04:20:48;101556.45;;;3.05;90.05
41467;BME280;27205;53.690;19.948;2023-02-14T04:25:53;101556.47;;;3.07;90.33
41467;BME280;27205;53.690;19.948;2023-02-14T04:31:00;101561.08;;;3.08;90.87
41467;BME280;27205;53.690;19.948;2023-02-14T04:36:06;101559.81;;;3.09;91.07
41467;BME280;27205;53.690;19.948;2023-02-14T04:41:09;101561.63;;;3.13;91.28
41467;BME280;27205;53.690;19.948;2023-02-14T04:46:13;101561.25;;;3.17;91.23
41467;BME280;27205;53.690;19.948;2023-02-14T04:51:17;101567.59;;;3.22;91.35
41467;BME280;27205;53.690;19.948;2023-02-14T04:56:20;101581.91;;;3.23;91.84
41467;BME280;27205;53.690;19.948;2023-02-14T05:01:24;101577.88;;;3.25;91.70
41467;BME280;27205;53.690;19.948;2023-02-14T05:06:27;101584.97;;;3.28;91.89
41467;BME280;27205;53.690;19.948;2023-02-14T05:11:31;101590.44;;;3.32;92.02
41467;BME280;27205;53.690;19.948;2023-02-14T05:16:35;101586.41;;;3.36;91.93
41467;BME280;27205;53.690;19.948;2023-02-14T05:21:40;101587.04;;;3.38;91.74
41467;BME280;27205;53.690;19.948;2023-02-14T05:26:44;101572.96;;;3.40;92.01
41467;BME280;27205;53.690;19.948;2023-02-14T05:31:48;101599.90;;;3.42;92.40
41467;BME280;27205;53.690;19.948;2023-02-14T05:36:51;101599.89;;;3.40;92.39
41467;BME280;27205;53.690;19.948;2023-02-14T05:41:57;101607.51;;;3.40;92.54
41467;BME280;27205;53.690;19.948;2023-02-14T05:47:01;101610.33;;;3.42;92.89
41467;BME280;27205;53.690;19.948;2023-02-14T05:52:05;101615.91;;;3.38;93.13
41467;BME280;27205;53.690;19.948;2023-02-14T05:57:09;101617.16;;;3.39;93.15
41467;BME280;27205;53.690;19.948;2023-02-14T06:02:12;101620.05;;;3.41;93.16
41467;BME280;27205;53.690;19.948;2023-02-14T06:07:18;101633.31;;;3.45;93.29
41467;BME280;27205;53.690;19.948;2023-02-14T06:12:21;101631.67;;;3.46;93.32
41467;BME280;27205;53.690;19.948;2023-02-14T06:17:25;101630.60;;;3.49;93.52
41467;BME280;27205;53.690;19.948;2023-02-14T06:22:28;101637.77;;;3.51;93.61
41467;BME280;27205;53.690;19.948;2023-02-14T06:27:32;101643.70;;;3.55;93.71
41467;BME280;27205;53.690;19.948;2023-02-14T06:32:36;101656.30;;;3.68;93.38
41467;BME280;27205;53.690;19.948;2023-02-14T06:37:40;101666.06;;;3.73;93.30
41467;BME280;27205;53.690;19.948;2023-02-14T06:42:44;101660.20;;;3.73;93.38
41467;BME280;27205;53.690;19.948;2023-02-14T06:47:47;101673.47;;;3.76;93.42
41467;BME280;27205;53.690;19.948;2023-02-14T06:52:51;101677.55;;;3.82;93.58
41467;BME280;27205;53.690;19.948;2023-02-14T06:57:55;101687.23;;;3.87;93.53
41467;BME280;27205;53.690;19.948;2023-02-14T07:02:58;101688.65;;;3.90;93.77
41467;BME280;27205;53.690;19.948;2023-02-14T07:08:02;101686.01;;;3.93;93.97
41467;BME280;27205;53.690;19.948;2023-02-14T07:13:06;101699.35;;;3.98;94.04
41467;BME280;27205;53.690;19.948;2023-02-14T07:18:10;101700.55;;;4.04;93.80
41467;BME280;27205;53.690;19.948;2023-02-14T07:23:13;101707.63;;;4.04;94.05
41467;BME280;27205;53.690;19.948;2023-02-14T07:28:17;101716.60;;;4.06;94.19
41467;BME280;27205;53.690;19.948;2023-02-14T07:33:21;101723.33;;;4.13;94.07
41467;BME280;27205;53.690;19.948;2023-02-14T07:38:24;101723.58;;;4.15;94.07
41467;BME280;27205;53.690;19.948;2023-02-14T07:43:28;101727.70;;;4.18;94.22
41467;BME280;27205;53.690;19.948;2023-02-14T07:48:31;101731.14;;;4.19;94.19
41467;BME280;27205;53.690;19.948;2023-02-14T07:53:36;101728.51;;;4.21;94.27
41467;BME280;27205;53.690;19.948;2023-02-14T07:58:40;101727.66;;;4.26;94.44
41467;BME280;27205;53.690;19.948;2023-02-14T08:03:43;101731.81;;;4.32;94.52
41467;BME280;27205;53.690;19.948;2023-02-14T08:08:51;101728.16;;;4.35;94.67
41467;BME280;27205;53.690;19.948;2023-02-14T08:13:55;101730.73;;;4.35;94.73
41467;BME280;27205;53.690;19.948;2023-02-14T08:18:59;101726.61;;;4.39;94.76
41467;BME280;27205;53.690;19.948;2023-02-14T08:24:03;101734.88;;;4.41;94.78
41467;BME280;27205;53.690;19.948;2023-02-14T08:29:07;101738.64;;;4.47;94.71
41467;BME280;27205;53.690;19.948;2023-02-14T08:34:10;101734.20;;;4.49;94.62
41467;BME280;27205;53.690;19.948;2023-02-14T08:39:14;101740.92;;;4.54;94.60
41467;BME280;27205;53.690;19.948;2023-02-14T08:44:17;101742.10;;;4.58;94.69
41467;BME280;27205;53.690;19.948;2023-02-14T08:49:21;101745.38;;;4.62;94.70
41467;BME280;27205;53.690;19.948;2023-02-14T08:54:25;101753.82;;;4.68;94.86
41467;BME280;27205;53.690;19.948;2023-02-14T08:59:28;101749.63;;;4.72;94.73
41467;BME280;27205;53.690;19.948;2023-02-14T09:04:34;101750.98;;;4.83;94.88
41467;BME280;27205;53.690;19.948;2023-02-14T09:09:38;101754.59;;;4.94;94.61
41467;BME280;27205;53.690;19.948;2023-02-14T09:14:43;101753.48;;;4.95;94.40
41467;BME280;27205;53.690;19.948;2023-02-14T09:19:46;101759.42;;;5.06;94.51
41467;BME280;27205;53.690;19.948;2023-02-14T09:24:50;101754.06;;;5.23;94.13
41467;BME280;27205;53.690;19.948;2023-02-14T09:29:53;101753.44;;;5.30;93.69
41467;BME280;27205;53.690;19.948;2023-02-14T09:34:57;101760.69;;;5.37;93.65
41467;BME280;27205;53.690;19.948;2023-02-14T09:40:01;101756.23;;;5.50;93.78
41467;BME280;27205;53.690;19.948;2023-02-14T09:45:24;101762.31;;;5.61;93.61
41467;BME280;27205;53.690;19.948;2023-02-14T09:50:50;101760.81;;;5.67;93.01
41467;BME280;27205;53.690;19.948;2023-02-14T10:01:41;101768.00;;;5.86;93.07
41467;BME280;27205;53.690;19.948;2023-02-14T10:23:03;101769.50;;;6.48;91.56
41467;BME280;27205;53.690;19.948;2023-02-14T10:28:11;101770.26;;;6.55;91.46
41467;BME280;27205;53.690;19.948;2023-02-14T10:33:18;101760.10;;;6.67;91.02
41467;BME280;27205;53.690;19.948;2023-02-14T10:54:20;101760.31;;;6.96;89.61
41467;BME280;27205;53.690;19.948;2023-02-14T10:59:43;101770.23;;;6.85;88.81
41467;BME280;27205;53.690;19.948;2023-02-14T11:04:49;101770.27;;;6.95;88.74
41467;BME280;27205;53.690;19.948;2023-02-14T11:09:55;101765.10;;;7.16;88.69
41467;BME280;27205;53.690;19.948;2023-02-14T11:25:28;101759.41;;;7.75;87.67
41467;BME280;27205;53.690;19.948;2023-02-14T11:30:35;101755.50;;;7.89;87.25
41467;BME280;27205;53.690;19.948;2023-02-14T11:35:49;101754.80;;;8.10;87.36
41467;BME280;27205;53.690;19.948;2023-02-14T11:40:54;101756.89;;;8.13;86.75
41467;BME280;27205;53.690;19.948;2023-02-14T11:46:31;101757.35;;;8.16;85.95
41467;BME280;27205;53.690;19.948;2023-02-14T11:51:46;101757.25;;;8.02;85.20
41467;BME280;27205;53.690;19.948;2023-02-14T11:56:56;101758.65;;;8.03;85.34
41467;BME280;27205;53.690;19.948;2023-02-14T12:12:34;101744.80;;;8.60;84.45
41467;BME280;27205;53.690;19.948;2023-02-14T12:17:38;101745.46;;;8.56;84.23
41467;BME280;27205;53.690;19.948;2023-02-14T12:27:52;101738.73;;;8.26;83.53
41467;BME280;27205;53.690;19.948;2023-02-14T12:32:59;101733.93;;;8.20;84.16
41467;BME280;27205;53.690;19.948;2023-02-14T12:49:27;101723.35;;;8.44;83.40
41467;BME280;27205;53.690;19.948;2023-02-14T13:05:49;101722.83;;;8.16;83.51
41467;BME280;27205;53.690;19.948;2023-02-14T13:21:28;101716.02;;;8.29;82.95
41467;BME280;27205;53.690;19.948;2023-02-14T13:26:37;101712.84;;;8.43;82.33
41467;BME280;27205;53.690;19.948;2023-02-14T13:31:42;101711.27;;;8.45;81.85
41467;BME280;27205;53.690;19.948;2023-02-14T13:36:46;101712.90;;;8.40;81.70
41467;BME280;27205;53.690;19.948;2023-02-14T13:41:50;101708.61;;;8.43;81.61
41467;BME280;27205;53.690;19.948;2023-02-14T13:46:53;101703.70;;;8.42;81.56
41467;BME280;27205;53.690;19.948;2023-02-14T13:52:00;101703.33;;;8.40;81.71
41467;BME280;27205;53.690;19.948;2023-02-14T13:57:29;101698.59;;;8.48;81.77
41467;BME280;27205;53.690;19.948;2023-02-14T14:02:54;101699.77;;;8.53;81.72
41467;BME280;27205;53.690;19.948;2023-02-14T14:18:44;101699.96;;;8.56;81.19
41467;BME280;27205;53.690;19.948;2023-02-14T14:35:01;101704.71;;;8.84;80.78
41467;BME280;27205;53.690;19.948;2023-02-14T14:45:28;101710.58;;;8.96;80.64
41467;BME280;27205;53.690;19.948;2023-02-14T14:50:34;101706.70;;;8.93;81.01
41467;BME280;27205;53.690;19.948;2023-02-14T14:55:42;101710.74;;;8.86;80.82
41467;BME280;27205;53.690;19.948;2023-02-14T15:00:50;101708.30;;;8.81;81.23
41467;BME280;27205;53.690;19.948;2023-02-14T15:06:14;101707.98;;;8.77;80.94
41467;BME280;27205;53.690;19.948;2023-02-14T15:11:27;101713.30;;;8.68;81.05
41467;BME280;27205;53.690;19.948;2023-02-14T15:21:56;101710.39;;;8.62;81.01
41467;BME280;27205;53.690;19.948;2023-02-14T15:27:01;101708.13;;;8.66;81.26
41467;BME280;27205;53.690;19.948;2023-02-14T15:32:05;101705.88;;;8.76;81.36
41467;BME280;27205;53.690;19.948;2023-02-14T15:37:12;101702.56;;;8.67;81.44
41467;BME280;27205;53.690;19.948;2023-02-14T15:42:28;101705.14;;;8.39;81.71
41467;BME280;27205;53.690;19.948;2023-02-14T15:47:33;101700.25;;;8.16;81.81
41467;BME280;27205;53.690;19.948;2023-02-14T15:52:39;101705.35;;;7.95;81.82
41467;BME280;27205;53.690;19.948;2023-02-14T15:57:44;101709.43;;;7.73;82.33
41467;BME280;27205;53.690;19.948;2023-02-14T16:02:55;101714.31;;;7.57;82.63
41467;BME280;27205;53.690;19.948;2023-02-14T16:08:05;101710.24;;;7.41;82.50
41467;BME280;27205;53.690;19.948;2023-02-14T16:18:30;101724.48;;;7.23;82.80
41467;BME280;27205;53.690;19.948;2023-02-14T16:23:33;101725.51;;;7.03;82.06
41467;BME280;27205;53.690;19.948;2023-02-14T16:28:39;101735.13;;;6.83;82.41
41467;BME280;27205;53.690;19.948;2023-02-14T16:33:45;101738.04;;;6.68;82.59
41467;BME280;27205;53.690;19.948;2023-02-14T16:38:49;101739.35;;;6.56;82.62
41467;BME280;27205;53.690;19.948;2023-02-14T16:43:53;101742.05;;;6.35;82.32
41467;BME280;27205;53.690;19.948;2023-02-14T16:48:58;101738.55;;;6.08;82.53
41467;BME280;27205;53.690;19.948;2023-02-14T16:54:05;101728.20;;;5.97;82.66
41467;BME280;27205;53.690;19.948;2023-02-14T16:59:09;101734.95;;;5.88;82.83
41467;BME280;27205;53.690;19.948;2023-02-14T17:04:13;101738.25;;;5.84;83.01
41467;BME280;27205;53.690;19.948;2023-02-14T17:09:20;101736.83;;;5.77;82.83
41467;BME280;27205;53.690;19.948;2023-02-14T17:14:28;101730.29;;;5.63;82.75
41467;BME280;27205;53.690;19.948;2023-02-14T17:19:35;101730.39;;;5.46;83.00
41467;BME280;27205;53.690;19.948;2023-02-14T17:24:39;101732.90;;;5.29;82.86
41467;BME280;27205;53.690;19.948;2023-02-14T17:29:43;101732.58;;;5.10;83.01
41467;BME280;27205;53.690;19.948;2023-02-14T17:34:46;101732.89;;;4.88;83.18
41467;BME280;27205;53.690;19.948;2023-02-14T17:39:51;101734.73;;;4.70;83.35
41467;BME280;27205;53.690;19.948;2023-02-14T17:44:55;101728.98;;;4.52;83.40
41467;BME280;27205;53.690;19.948;2023-02-14T17:49:58;101733.09;;;4.40;83.39
41467;BME280;27205;53.690;19.948;2023-02-14T17:55:02;101741.84;;;4.24;84.31
41467;BME280;27205;53.690;19.948;2023-02-14T18:00:07;101743.02;;;4.10;84.28
41467;BME280;27205;53.690;19.948;2023-02-14T18:05:14;101742.55;;;4.07;84.23
41467;BME280;27205;53.690;19.948;2023-02-14T18:10:20;101743.63;;;4.07;84.42
41467;BME280;27205;53.690;19.948;2023-02-14T18:15:23;101744.04;;;4.11;84.69
41467;BME280;27205;53.690;19.948;2023-02-14T18:20:29;101747.64;;;4.14;84.67
41467;BME280;27205;53.690;19.948;2023-02-14T18:25:33;101749.13;;;4.16;84.98
41467;BME280;27205;53.690;19.948;2023-02-14T18:30:36;101750.84;;;4.15;85.16
41467;BME280;27205;53.690;19.948;2023-02-14T18:35:40;101753.52;;;4.23;85.24
41467;BME280;27205;53.690;19.948;2023-02-14T18:40:44;101748.11;;;4.35;85.27
41467;BME280;27205;53.690;19.948;2023-02-14T18:45:47;101751.19;;;4.47;85.34
41467;BME280;27205;53.690;19.948;2023-02-14T18:50:51;101746.48;;;4.65;85.41
41467;BME280;27205;53.690;19.948;2023-02-14T18:55:55;101740.11;;;4.76;85.46
41467;BME280;27205;53.690;19.948;2023-02-14T19:01:12;101742.84;;;4.76;85.57
41467;BME280;27205;53.690;19.948;2023-02-14T19:06:17;101739.75;;;4.83;85.51
41467;BME280;27205;53.690;19.948;2023-02-14T19:11:23;101742.24;;;4.89;85.45
41467;BME280;27205;53.690;19.948;2023-02-14T19:16:32;101741.70;;;4.96;85.43
41467;BME280;27205;53.690;19.948;2023-02-14T19:21:36;101739.14;;;5.06;85.68
41467;BME280;27205;53.690;19.948;2023-02-14T19:26:39;101733.06;;;5.11;85.64
41467;BME280;27205;53.690;19.948;2023-02-14T19:31:45;101724.48;;;5.27;85.94
41467;BME280;27205;53.690;19.948;2023-02-14T19:36:52;101727.66;;;5.41;85.64
41467;BME280;27205;53.690;19.948;2023-02-14T19:41:56;101729.62;;;5.47;85.66
41467;BME280;27205;53.690;19.948;2023-02-14T19:47:00;101726.34;;;5.49;85.83
41467;BME280;27205;53.690;19.948;2023-02-14T19:52:13;101728.42;;;5.52;85.94
41467;BME280;27205;53.690;19.948;2023-02-14T19:57:28;101729.77;;;5.44;85.60
41467;BME280;27205;53.690;19.948;2023-02-14T20:02:31;101727.27;;;5.44;85.43
41467;BME280;27205;53.690;19.948;2023-02-14T20:07:35;101725.09;;;5.42;85.54
41467;BME280;27205;53.690;19.948;2023-02-14T20:12:38;101724.61;;;5.36;85.58
41467;BME280;27205;53.690;19.948;2023-02-14T20:17:42;101729.61;;;5.34;85.68
41467;BME280;27205;53.690;19.948;2023-02-14T20:22:45;101731.95;;;5.36;85.70
41467;BME280;27205;53.690;19.948;2023-02-14T20:27:52;101734.92;;;5.37;85.55
41467;BME280;27205;53.690;19.948;2023-02-14T20:32:56;101733.20;;;5.38;85.70
41467;BME280;27205;53.690;19.948;2023-02-14T20:37:59;101733.75;;;5.37;85.80
41467;BME280;27205;53.690;19.948;2023-02-14T20:43:03;101733.21;;;5.29;85.94
41467;BME280;27205;53.690;19.948;2023-02-14T20:48:06;101730.88;;;5.30;86.06
41467;BME280;27205;53.690;19.948;2023-02-14T20:53:12;101728.30;;;5.24;86.00
41467;BME280;27205;53.690;19.948;2023-02-14T20:58:16;101725.88;;;5.20;86.20
41467;BME280;27205;53.690;19.948;2023-02-14T21:03:19;101722.14;;;5.16;86.38
41467;BME280;27205;53.690;19.948;2023-02-14T21:08:25;101723.61;;;5.11;86.31
41467;BME280;27205;53.690;19.948;2023-02-14T21:13:29;101729.23;;;5.07;86.29
41467;BME280;27205;53.690;19.948;2023-02-14T21:18:34;101724.95;;;5.07;86.49
41467;BME280;27205;53.690;19.948;2023-02-14T21:23:37;101724.40;;;5.13;86.71
41467;BME280;27205;53.690;19.948;2023-02-14T21:28:41;101725.41;;;5.18;86.43
41467;BME280;27205;53.690;19.948;2023-02-14T21:33:47;101723.08;;;5.16;86.49
41467;BME280;27205;53.690;19.948;2023-02-14T21:38:53;101728.54;;;5.14;86.61
41467;BME280;27205;53.690;19.948;2023-02-14T21:44:01;101721.90;;;5.15;86.70
41467;BME280;27205;53.690;19.948;2023-02-14T21:49:05;101711.76;;;5.11;86.89
41467;BME280;27205;53.690;19.948;2023-02-14T21:54:28;101703.41;;;5.12;86.84
41467;BME280;27205;53.690;19.948;2023-02-14T21:59:31;101706.52;;;5.11;86.83
41467;BME280;27205;53.690;19.948;2023-02-14T22:04:35;101701.38;;;5.12;86.89
41467;BME280;27205;53.690;19.948;2023-02-14T22:09:40;101699.35;;;5.12;86.83
41467;BME280;27205;53.690;19.948;2023-02-14T22:14:43;101700.98;;;5.13;86.93
41467;BME280;27205;53.690;19.948;2023-02-14T22:19:47;101703.09;;;5.17;86.88
41467;BME280;27205;53.690;19.948;2023-02-14T22:24:51;101705.27;;;5.25;87.06
41467;BME280;27205;53.690;19.948;2023-02-14T22:29:54;101702.14;;;5.32;86.92
41467;BME280;27205;53.690;19.948;2023-02-14T22:34:58;101700.18;;;5.32;87.05
41467;BME280;27205;53.690;19.948;2023-02-14T22:40:01;101699.95;;;5.34;87.11
41467;BME280;27205;53.690;19.948;2023-02-14T22:45:06;101694.18;;;5.33;87.11
41467;BME280;27205;53.690;19.948;2023-02-14T22:50:10;101695.42;;;5.39;87.33
41467;BME280;27205;53.690;19.948;2023-02-14T22:55:14;101697.07;;;5.38;87.47
41467;BME280;27205;53.690;19.948;2023-02-14T23:00:18;101702.12;;;5.48;87.64
41467;BME280;27205;53.690;19.948;2023-02-14T23:05:21;101698.77;;;5.49;87.24
41467;BME280;27205;53.690;19.948;2023-02-14T23:10:26;101701.29;;;5.37;86.91
41467;BME280;27205;53.690;19.948;2023-02-14T23:15:29;101704.41;;;5.25;87.25
41467;BME280;27205;53.690;19.948;2023-02-14T23:20:52;101707.61;;;5.26;87.31
41467;BME280;27205;53.690;19.948;2023-02-14T23:26:18;101708.86;;;5.32;87.32
41467;BME280;27205;53.690;19.948;2023-02-14T23:31:21;101712.52;;;5.28;87.28
41467;BME280;27205;53.690;19.948;2023-02-14T23:36:25;101708.93;;;5.41;87.71
41467;BME280;27205;53.690;19.948;2023-02-14T23:41:29;101704.01;;;5.42;87.60
41467;BME280;27205;53.690;19.948;2023-02-14T23:46:53;101696.98;;;5.45;87.69
41467;BME280;27205;53.690;19.948;2023-02-14T23:51:57;101688.14;;;5.58;87.74
41467;BME280;27205;53.690;19.948;2023-02-14T23:57:01;101688.34;;;5.68;87.61
